Time;durP1;ratioP1;P1;durP2;ratioP2;P2;SDS_P1;SDS_P2;PMS_P1;PMS_P2;Temp;Humidity;BMP_temperature;BMP_pressure;BME280_temperature;BME280_humidity;BME280_pressure;Samples;Min_cycle;Max_cycle;Signal;HPM_P1;HPM_P2
2023/10/17 00:00:25;;;;;;;11.02;5.70;;;5.90;99.40;;;;;;5011607;28;20041;-69
2023/10/17 00:02:51;;;;;;;9.23;5.63;;;5.90;99.40;;;;;;5008047;28;20025;-68
2023/10/17 00:05:20;;;;;;;8.00;5.13;;;6.00;99.40;;;;;;5002421;28;20038;-68
2023/10/17 00:07:46;;;;;;;9.63;5.32;;;6.00;99.40;;;;;;5008163;28;20036;-69
2023/10/17 00:10:18;;;;;;;13.25;6.30;;;6.10;99.40;;;;;;5010161;28;20034;-69
2023/10/17 00:12:51;;;;;;;10.13;6.15;;;6.10;99.40;;;;;;5003334;28;20128;-68
2023/10/17 00:15:27;;;;;;;10.30;5.53;;;6.10;99.40;;;;;;5010898;28;20035;-68
2023/10/17 00:17:55;;;;;;;9.63;5.43;;;6.10;99.40;;;;;;5002661;28;20126;-70
2023/10/17 00:20:24;;;;;;;11.50;5.82;;;6.10;99.40;;;;;;5001384;28;20038;-69
2023/10/17 00:22:51;;;;;;;11.27;5.45;;;6.10;99.40;;;;;;4997894;28;20026;-69
2023/10/17 00:25:17;;;;;;;11.90;5.88;;;6.10;99.40;;;;;;5007940;28;20121;-69
2023/10/17 00:27:43;;;;;;;10.38;5.95;;;6.10;99.40;;;;;;5000975;28;20048;-68
2023/10/17 00:30:17;;;;;;;12.35;6.63;;;6.10;99.40;;;;;;5002010;28;20053;-68
2023/10/17 00:32:43;;;;;;;9.93;5.97;;;6.10;99.30;;;;;;5007358;28;20061;-68
2023/10/17 00:35:13;;;;;;;13.23;6.68;;;6.20;99.30;;;;;;5004366;28;20089;-68
2023/10/17 00:37:39;;;;;;;9.43;5.95;;;6.20;99.40;;;;;;4998996;28;20038;-69
2023/10/17 00:40:26;;;;;;;13.18;5.53;;;6.20;99.40;;;;;;4995505;28;20085;-68
2023/10/17 00:42:51;;;;;;;9.32;5.60;;;6.20;99.40;;;;;;5011824;28;20450;-68
2023/10/17 00:45:17;;;;;;;12.48;6.03;;;6.30;99.40;;;;;;5000550;28;20216;-69
2023/10/17 00:47:43;;;;;;;11.65;5.70;;;6.30;99.40;;;;;;5005674;28;20048;-69
2023/10/17 00:50:13;;;;;;;9.75;5.63;;;6.30;99.40;;;;;;5008561;28;20037;-69
2023/10/17 00:52:39;;;;;;;11.60;5.82;;;6.30;99.40;;;;;;5005909;28;20033;-68
2023/10/17 00:55:10;;;;;;;9.63;5.85;;;6.30;99.40;;;;;;4997394;28;20034;-69
2023/10/17 00:57:37;;;;;;;9.18;5.70;;;6.30;99.40;;;;;;5003311;28;20040;-69
2023/10/17 01:02:47;;;;;;;14.40;5.88;;;6.30;99.40;;;;;;5006117;28;20029;-68
2023/10/17 01:05:13;;;;;;;11.02;5.75;;;6.40;99.50;;;;;;5009567;28;20046;-68
2023/10/17 01:07:40;;;;;;;10.23;5.57;;;6.40;99.40;;;;;;5002446;28;20521;-69
2023/10/17 01:10:16;;;;;;;10.38;5.47;;;6.40;99.40;;;;;;5001513;28;20022;-68
2023/10/17 01:12:53;;;;;;;12.63;5.90;;;6.40;99.40;;;;;;5006579;28;20038;-68
2023/10/17 01:15:22;;;;;;;9.10;5.85;;;6.40;99.40;;;;;;4998918;28;20037;-68
2023/10/17 01:17:48;;;;;;;11.82;5.68;;;6.40;99.40;;;;;;5010735;28;20022;-68
2023/10/17 01:20:20;;;;;;;9.00;5.07;;;6.40;99.40;;;;;;4997656;28;20032;-69
2023/10/17 01:22:46;;;;;;;9.23;5.55;;;6.40;99.40;;;;;;5022534;28;20095;-68
2023/10/17 01:28:10;;;;;;;11.80;5.75;;;6.40;99.40;;;;;;5002249;28;20364;-68
2023/10/17 01:30:36;;;;;;;9.73;5.63;;;6.40;99.40;;;;;;5003622;28;20026;-68
2023/10/17 01:33:02;;;;;;;8.60;5.25;;;6.40;99.50;;;;;;5011460;28;20041;-69
2023/10/17 01:35:28;;;;;;;11.35;5.60;;;6.40;99.50;;;;;;5006899;28;20056;-68
2023/10/17 01:37:55;;;;;;;9.77;5.68;;;6.40;99.40;;;;;;5008926;28;20034;-68
2023/10/17 01:40:27;;;;;;;13.50;6.65;;;6.40;99.50;;;;;;5009604;28;20026;-68
2023/10/17 01:42:53;;;;;;;11.18;6.07;;;6.40;99.40;;;;;;5006371;28;20034;-68
2023/10/17 01:45:26;;;;;;;7.80;5.18;;;6.50;99.50;;;;;;5007498;28;20493;-69
2023/10/17 01:47:53;;;;;;;10.13;6.07;;;6.50;99.40;;;;;;5006465;28;20071;-69
2023/10/17 01:50:20;;;;;;;9.13;5.13;;;6.40;99.50;;;;;;5009087;28;20030;-70
2023/10/17 01:52:46;;;;;;;10.10;5.00;;;6.40;99.40;;;;;;5005334;28;20034;-69
2023/10/17 01:55:15;;;;;;;9.48;5.28;;;6.40;99.40;;;;;;5006998;28;20045;-69
2023/10/17 01:57:43;;;;;;;8.80;5.10;;;6.40;99.50;;;;;;5006700;28;20030;-70
2023/10/17 02:02:58;;;;;;;8.50;5.05;;;6.40;99.40;;;;;;5003900;28;20037;-68
2023/10/17 02:05:23;;;;;;;10.52;5.25;;;6.40;99.40;;;;;;5004622;28;20483;-68
2023/10/17 02:07:49;;;;;;;8.32;5.00;;;6.40;99.50;;;;;;5002807;28;20092;-69
2023/10/17 02:10:17;;;;;;;8.30;5.10;;;6.40;99.30;;;;;;4995285;28;20042;-69
2023/10/17 02:12:44;;;;;;;10.77;5.13;;;6.40;99.40;;;;;;5002877;28;20026;-69
2023/10/17 02:15:12;;;;;;;8.75;5.18;;;6.50;99.30;;;;;;5004880;28;20034;-68
2023/10/17 02:17:37;;;;;;;10.38;4.75;;;6.50;99.30;;;;;;5009240;28;20029;-69
2023/10/17 02:20:14;;;;;;;10.43;4.90;;;6.50;99.40;;;;;;5002817;28;20030;-68
2023/10/17 02:22:46;;;;;;;6.65;4.55;;;6.50;99.30;;;;;;4999430;28;20485;-68
2023/10/17 02:25:14;;;;;;;7.63;5.18;;;6.50;99.30;;;;;;5003888;28;20085;-68
2023/10/17 02:27:40;;;;;;;8.32;4.72;;;6.50;99.30;;;;;;5007896;28;20113;-68
2023/10/17 02:30:10;;;;;;;7.32;4.60;;;6.50;99.30;;;;;;5007550;28;20113;-68
2023/10/17 02:32:43;;;;;;;7.57;5.00;;;6.50;99.30;;;;;;5007786;28;20022;-68
2023/10/17 02:35:14;;;;;;;7.18;4.45;;;6.50;99.40;;;;;;5005172;28;20117;-68
2023/10/17 02:37:43;;;;;;;9.07;4.75;;;6.50;99.40;;;;;;5008285;28;20022;-69
2023/10/17 02:40:20;;;;;;;10.05;4.70;;;6.50;99.40;;;;;;5001146;28;20049;-69
2023/10/17 02:42:47;;;;;;;7.10;4.57;;;6.50;99.40;;;;;;5000329;28;20029;-69
2023/10/17 02:45:13;;;;;;;8.02;5.03;;;6.50;99.30;;;;;;5002748;28;20038;-68
2023/10/17 02:47:43;;;;;;;8.68;4.57;;;6.50;99.20;;;;;;5006701;28;20045;-69
2023/10/17 02:50:25;;;;;;;7.35;4.65;;;6.50;99.30;;;;;;5000239;28;20030;-69
2023/10/17 02:52:51;;;;;;;11.32;4.60;;;6.50;99.30;;;;;;5001706;28;20529;-69
2023/10/17 02:55:28;;;;;;;9.68;4.75;;;6.50;99.30;;;;;;5004244;28;20357;-68
2023/10/17 02:57:57;;;;;;;9.88;4.65;;;6.50;99.30;;;;;;5005043;28;20042;-69
2023/10/17 03:00:25;;;;;;;9.35;4.35;;;6.50;99.30;;;;;;5005531;28;20073;-69
2023/10/17 03:02:56;;;;;;;7.00;4.80;;;6.50;99.30;;;;;;5003273;28;20030;-69
2023/10/17 03:05:24;;;;;;;7.72;4.43;;;6.60;99.30;;;;;;5000563;28;20049;-70
2023/10/17 03:07:50;;;;;;;8.90;4.75;;;6.60;99.30;;;;;;4994859;28;20141;-69
2023/10/17 03:10:39;;;;;;;7.28;4.60;;;6.50;99.20;;;;;;4998085;28;20532;-68
2023/10/17 03:13:14;;;;;;;6.88;4.45;;;6.50;99.40;;;;;;4997078;28;20033;-70
2023/10/17 03:15:45;;;;;;;8.30;4.63;;;6.50;99.30;;;;;;5003099;28;20027;-68
2023/10/17 03:18:17;;;;;;;6.15;4.25;;;6.50;99.40;;;;;;4995561;28;20033;-68
2023/10/17 03:20:53;;;;;;;8.10;4.30;;;6.60;99.40;;;;;;5004248;28;20216;-69
2023/10/17 03:23:28;;;;;;;7.43;4.45;;;6.60;99.30;;;;;;5000592;28;20034;-70
2023/10/17 03:26:00;;;;;;;5.88;3.92;;;6.60;99.30;;;;;;5006304;28;20121;-68
2023/10/17 03:28:27;;;;;;;7.60;4.22;;;6.60;99.30;;;;;;5006392;28;20467;-69
2023/10/17 03:30:53;;;;;;;9.75;4.32;;;6.60;99.30;;;;;;4999315;28;20033;-69
2023/10/17 03:33:27;;;;;;;9.63;4.28;;;6.60;99.40;;;;;;5006771;28;20030;-69
2023/10/17 03:38:31;;;;;;;7.13;4.65;;;6.60;99.30;;;;;;5004152;28;20114;-68
2023/10/17 03:41:02;;;;;;;8.20;4.57;;;6.60;99.30;;;;;;5005660;28;20022;-69
2023/10/17 03:43:45;;;;;;;8.68;4.43;;;6.60;99.40;;;;;;4996239;28;20033;-69
2023/10/17 03:46:15;;;;;;;7.00;4.50;;;6.60;99.40;;;;;;5005194;28;20026;-69
2023/10/17 03:48:49;;;;;;;8.00;4.72;;;6.60;99.30;;;;;;5008923;28;20037;-68
2023/10/17 03:51:21;;;;;;;10.15;4.72;;;6.60;99.40;;;;;;5005342;28;20065;-69
2023/10/17 03:53:48;;;;;;;6.85;4.25;;;6.60;99.40;;;;;;5004444;28;20544;-68
2023/10/17 03:56:23;;;;;;;6.93;4.43;;;6.60;99.40;;;;;;4997754;28;20064;-68
2023/10/17 04:01:35;;;;;;;7.05;4.20;;;6.60;99.40;;;;;;4995504;28;20038;-70
2023/10/17 04:04:02;;;;;;;7.60;4.65;;;6.60;99.50;;;;;;4996938;28;20038;-69
2023/10/17 04:06:35;;;;;;;6.95;4.30;;;6.60;99.40;;;;;;5005194;28;20033;-69
2023/10/17 04:09:46;;;;;;;9.38;4.68;;;6.60;99.40;;;;;;4999472;28;20081;-69
2023/10/17 04:11:58;;;;;;;7.60;4.68;;;6.60;99.50;;;;;;5002153;28;20391;-69
2023/10/17 04:14:33;;;;;;;5.72;4.18;;;6.60;99.50;;;;;;5007309;28;20065;-68
2023/10/17 04:17:02;;;;;;;9.80;4.95;;;6.70;99.40;;;;;;5003056;28;20034;-69
2023/10/17 04:19:30;;;;;;;9.60;4.55;;;6.60;99.40;;;;;;5001562;28;20025;-68
2023/10/17 04:24:55;;;;;;;8.15;4.32;;;6.60;99.40;;;;;;5001550;28;20037;-68
2023/10/17 04:29:49;;;;;;;13.40;4.93;;;6.60;99.30;;;;;;5011342;28;20057;-67
2023/10/17 04:32:15;;;;;;;7.35;4.88;;;6.70;99.40;;;;;;5005406;28;20466;-66
2023/10/17 04:34:48;;;;;;;8.18;4.95;;;6.70;99.40;;;;;;5002785;28;20033;-65
2023/10/17 04:37:17;;;;;;;6.93;4.30;;;6.70;99.40;;;;;;5001790;28;20080;-66
2023/10/17 04:39:54;;;;;;;6.97;4.38;;;6.70;99.40;;;;;;5010324;28;20033;-67
2023/10/17 04:42:26;;;;;;;8.45;5.13;;;6.70;99.40;;;;;;5009911;28;20113;-67
2023/10/17 04:45:03;;;;;;;8.00;4.60;;;6.70;99.40;;;;;;5003966;28;20390;-66
2023/10/17 04:47:30;;;;;;;7.18;4.47;;;6.80;99.40;;;;;;5013257;28;20030;-66
2023/10/17 04:49:55;;;;;;;8.95;5.15;;;6.80;99.40;;;;;;5012778;28;20021;-66
2023/10/17 04:52:28;;;;;;;7.13;4.30;;;6.70;99.30;;;;;;5009967;28;20026;-66
2023/10/17 04:54:58;;;;;;;9.10;4.70;;;6.70;99.30;;;;;;5008520;28;20029;-66
2023/10/17 04:57:47;;;;;;;7.90;4.35;;;6.70;99.40;;;;;;5006336;28;20049;-66
2023/10/17 05:00:15;;;;;;;9.02;4.60;;;6.70;99.40;;;;;;5000513;28;20037;-66
2023/10/17 05:02:49;;;;;;;6.57;4.38;;;6.70;99.40;;;;;;5006005;28;20101;-66
2023/10/17 05:05:39;;;;;;;8.27;4.80;;;6.70;99.40;;;;;;5009132;28;20390;-65
2023/10/17 05:08:18;;;;;;;8.25;4.60;;;6.80;99.50;;;;;;5007082;28;20442;-65
2023/10/17 06:19:09;;;;;;;9.30;5.60;;;6.60;99.60;;;;;;5000957;28;20406;-66
2023/10/17 06:21:39;;;;;;;8.60;5.72;;;6.60;99.50;;;;;;4999124;28;20022;-67
2023/10/17 06:24:44;;;;;;;7.97;5.30;;;6.60;99.40;;;;;;5006201;28;20075;-66
2023/10/17 06:26:59;;;;;;;9.65;5.20;;;6.60;99.40;;;;;;5001818;28;20371;-66
2023/10/17 06:31:57;;;;;;;8.05;5.55;;;6.70;99.30;;;;;;5004087;28;20025;-66
2023/10/17 06:34:24;;;;;;;9.98;5.80;;;6.70;99.40;;;;;;5002356;28;20040;-67
2023/10/17 06:36:52;;;;;;;10.02;5.88;;;6.80;99.30;;;;;;5002413;28;20032;-65
2023/10/17 06:39:18;;;;;;;9.45;5.38;;;6.80;99.20;;;;;;5009170;28;20104;-66
2023/10/17 06:41:47;;;;;;;10.00;5.90;;;6.80;99.20;;;;;;5009418;28;20080;-68
2023/10/17 06:44:21;;;;;;;9.75;5.40;;;6.90;99.20;;;;;;5005227;28;20118;-65
2023/10/17 06:47:07;;;;;;;10.40;5.57;;;7.00;99.20;;;;;;4997154;28;20438;-67
2023/10/17 06:54:41;;;;;;;9.73;5.60;;;7.20;99.10;;;;;;5008926;28;20049;-66
2023/10/17 06:57:19;;;;;;;11.13;5.95;;;7.20;98.90;;;;;;5007937;28;20033;-66
2023/10/17 06:59:45;;;;;;;8.57;5.47;;;7.20;98.80;;;;;;5002551;28;20049;-66
2023/10/17 07:02:18;;;;;;;10.70;5.93;;;7.30;98.70;;;;;;5007199;28;20478;-66
2023/10/17 07:04:45;;;;;;;9.15;5.28;;;7.40;98.40;;;;;;5008528;28;20354;-66
2023/10/17 07:07:11;;;;;;;9.50;4.97;;;7.40;98.30;;;;;;5008373;28;20022;-66
2023/10/17 07:09:39;;;;;;;9.90;5.03;;;7.50;98.30;;;;;;5001562;28;20025;-65
2023/10/17 07:12:05;;;;;;;11.88;5.47;;;7.60;98.10;;;;;;5000193;28;20050;-66
2023/10/17 07:14:31;;;;;;;10.02;5.03;;;7.70;98.10;;;;;;5012613;28;20488;-65
2023/10/17 07:17:17;;;;;;;12.13;5.63;;;7.70;97.80;;;;;;5004812;28;20038;-66
2023/10/17 07:19:57;;;;;;;8.90;4.75;;;7.70;97.80;;;;;;5009450;28;20034;-66
2023/10/17 07:22:24;;;;;;;8.57;5.10;;;7.80;97.50;;;;;;5006303;28;20467;-66
2023/10/17 07:24:50;;;;;;;8.50;4.80;;;7.90;97.50;;;;;;5004535;28;20077;-68
2023/10/17 07:27:19;;;;;;;8.45;5.10;;;8.00;97.20;;;;;;4997494;28;20030;-66
2023/10/17 07:29:46;;;;;;;9.65;4.10;;;8.10;97.10;;;;;;5003265;28;20029;-66
2023/10/17 07:32:16;;;;;;;;;;;8.10;97.00;;;;;;5006317;28;20037;-66
2023/10/17 07:34:43;;;;;;;6.25;3.78;;;8.30;97.10;;;;;;5006862;28;19956;-67
2023/10/17 07:37:25;;;;;;;10.77;3.95;;;8.40;96.90;;;;;;4996445;28;20026;-66
2023/10/17 07:42:40;;;;;;;6.72;3.05;;;8.50;96.40;;;;;;4995763;28;20060;-66
2023/10/17 07:45:14;;;;;;;6.65;3.65;;;8.60;96.10;;;;;;4999222;28;20030;-67
2023/10/17 07:47:41;;;;;;;5.35;2.95;;;8.70;95.50;;;;;;5008589;28;20644;-67
2023/10/17 07:50:12;;;;;;;7.85;2.72;;;8.80;95.00;;;;;;5007427;28;20030;-66
2023/10/17 07:52:38;;;;;;;;;;;8.90;94.80;;;;;;5006314;28;20409;-66
2023/10/17 07:55:34;;;;;;;5.05;2.53;;;9.00;94.70;;;;;;5011175;28;19999;-66
2023/10/17 07:58:06;;;;;;;6.43;2.60;;;9.10;95.10;;;;;;5012824;28;20026;-66
2023/10/17 08:00:36;;;;;;;4.90;2.28;;;9.20;94.50;;;;;;5004368;28;20054;-67
2023/10/17 08:03:14;;;;;;;7.90;2.55;;;9.30;93.80;;;;;;5006385;28;20026;-66
2023/10/17 08:06:04;;;;;;;4.57;2.15;;;9.30;93.20;;;;;;5003546;28;20037;-66
2023/10/17 08:08:33;;;;;;;6.15;2.08;;;9.50;93.80;;;;;;5008728;28;20039;-67
2023/10/17 08:11:00;;;;;;;3.13;1.73;;;9.70;94.00;;;;;;5006334;28;20030;-66
2023/10/17 08:13:28;;;;;;;5.60;2.10;;;9.80;92.80;;;;;;5003851;28;20115;-67
2023/10/17 08:16:04;;;;;;;4.07;1.77;;;9.80;89.80;;;;;;5003861;28;20041;-66
2023/10/17 08:18:39;;;;;;;4.95;1.67;;;9.70;88.50;;;;;;5010424;28;20034;-66
2023/10/17 08:23:49;;;;;;;3.90;1.50;;;10.00;85.90;;;;;;5003515;28;20041;-66
2023/10/17 08:26:17;;;;;;;3.20;1.55;;;10.00;87.60;;;;;;5006907;28;20137;-66
2023/10/17 08:31:22;;;;;;;1.38;0.75;;;10.30;84.70;;;;;;5004532;28;20518;-66
2023/10/17 08:33:57;;;;;;;1.85;0.95;;;10.30;82.90;;;;;;5004547;28;20025;-66
2023/10/17 08:36:28;;;;;;;4.40;0.95;;;10.30;81.60;;;;;;5005052;28;20471;-67
2023/10/17 08:38:54;;;;;;;2.10;0.73;;;10.50;80.10;;;;;;5003073;28;20030;-66
2023/10/17 08:41:23;;;;;;;2.15;0.75;;;10.80;84.40;;;;;;5006699;28;20498;-66
2023/10/17 08:43:48;;;;;;;4.50;1.00;;;10.60;81.50;;;;;;5005009;28;20481;-66
2023/10/17 08:46:14;;;;;;;1.63;0.57;;;10.60;78.20;;;;;;5004652;28;20022;-66
2023/10/17 08:48:43;;;;;;;1.23;0.55;;;10.70;80.00;;;;;;5005144;28;20041;-68
2023/10/17 08:51:12;;;;;;;3.40;0.60;;;10.30;79.90;;;;;;5003160;28;20029;-66
2023/10/17 08:53:39;;;;;;;0.95;0.60;;;10.30;81.00;;;;;;5005564;28;20037;-65
2023/10/17 08:56:07;;;;;;;2.15;0.60;;;10.50;81.10;;;;;;5001088;28;20048;-65
2023/10/17 08:58:33;;;;;;;3.80;0.90;;;10.80;80.30;;;;;;5011234;28;20505;-67
2023/10/17 09:01:18;;;;;;;2.15;0.60;;;10.80;80.10;;;;;;5011189;28;20021;-66
2023/10/17 09:03:46;;;;;;;2.15;0.60;;;11.10;80.70;;;;;;5013203;28;20461;-66
2023/10/17 09:08:55;;;;;;;2.22;0.60;;;11.40;75.10;;;;;;5003865;28;20083;-66
2023/10/17 09:11:31;;;;;;;1.17;0.30;;;11.60;79.10;;;;;;5003483;28;20032;-68
2023/10/17 09:14:17;;;;;;;3.80;0.60;;;11.50;74.50;;;;;;4999957;28;20403;-67
2023/10/17 09:17:00;;;;;;;1.23;0.40;;;11.50;76.00;;;;;;5003102;28;20026;-66
2023/10/17 09:19:25;;;;;;;2.45;0.55;;;11.70;74.70;;;;;;5005713;28;20030;-67
2023/10/17 09:21:51;;;;;;;0.93;0.30;;;11.90;76.60;;;;;;5008218;28;20497;-67
2023/10/17 09:24:29;;;;;;;2.53;0.50;;;11.90;74.90;;;;;;5004372;28;20046;-66
2023/10/17 09:26:56;;;;;;;1.83;0.32;;;11.90;74.10;;;;;;5003616;28;20050;-67
2023/10/17 09:29:22;;;;;;;2.17;0.40;;;12.00;74.70;;;;;;5011739;28;20022;-67
2023/10/17 09:31:47;;;;;;;3.65;0.47;;;12.10;74.50;;;;;;5004050;28;20460;-66
2023/10/17 09:34:14;;;;;;;3.42;0.40;;;12.00;70.00;;;;;;5009231;28;20112;-66
2023/10/17 09:36:42;;;;;;;3.97;0.68;;;12.30;75.60;;;;;;5003168;28;20026;-66
2023/10/17 09:39:14;;;;;;;4.13;0.60;;;12.40;68.70;;;;;;5001668;28;20029;-66
2023/10/17 09:41:40;;;;;;;1.45;0.30;;;12.60;70.30;;;;;;5007173;28;20056;-67
2023/10/17 09:44:10;;;;;;;1.92;0.60;;;12.30;66.90;;;;;;5004196;28;20038;-64
2023/10/17 09:46:37;;;;;;;2.15;0.40;;;12.30;67.50;;;;;;5004147;28;20450;-65
2023/10/17 09:49:06;;;;;;;3.40;0.50;;;12.40;68.20;;;;;;5005225;28;20038;-65
2023/10/17 09:51:33;;;;;;;2.80;0.52;;;12.60;71.10;;;;;;5011202;28;20029;-65
2023/10/17 09:54:01;;;;;;;0.45;0.40;;;12.60;68.00;;;;;;5008055;28;20044;-66
2023/10/17 09:56:38;;;;;;;2.05;0.40;;;12.60;69.80;;;;;;5004785;28;20046;-65
2023/10/17 09:59:11;;;;;;;2.72;0.40;;;12.60;68.70;;;;;;5007340;28;20045;-65
2023/10/17 10:01:39;;;;;;;1.67;0.40;;;12.60;68.50;;;;;;5002892;28;20031;-64
2023/10/17 10:04:07;;;;;;;3.05;0.38;;;12.60;67.50;;;;;;5010946;28;20157;-65
2023/10/17 10:06:34;;;;;;;1.73;0.40;;;12.60;66.30;;;;;;5008661;28;20034;-65
2023/10/17 10:09:35;;;;;;;3.22;0.60;;;12.30;66.40;;;;;;5003886;28;20057;-65
2023/10/17 10:12:01;;;;;;;1.95;0.35;;;12.20;66.80;;;;;;5000976;28;20471;-65
2023/10/17 10:14:27;;;;;;;1.02;0.45;;;12.30;66.90;;;;;;5003174;28;20041;-65
2023/10/17 10:16:57;;;;;;;1.27;0.50;;;12.50;68.00;;;;;;5000944;28;20033;-66
2023/10/17 10:19:24;;;;;;;1.58;0.40;;;12.60;68.90;;;;;;5000596;28;20517;-64
2023/10/17 10:22:00;;;;;;;1.25;0.25;;;12.90;68.10;;;;;;5003453;28;20025;-65
2023/10/17 10:24:33;;;;;;;1.17;0.30;;;12.90;63.90;;;;;;5008056;28;20471;-64
2023/10/17 10:27:15;;;;;;;1.35;0.40;;;13.10;68.10;;;;;;4998631;28;20107;-68
2023/10/17 10:29:52;;;;;;;1.33;0.30;;;13.60;67.30;;;;;;5002377;28;20033;-65
2023/10/17 10:32:38;;;;;;;0.38;0.20;;;13.60;65.90;;;;;;5002651;28;20028;-64
2023/10/17 10:35:08;;;;;;;3.35;0.40;;;13.60;63.40;;;;;;5005272;28;20037;-65
2023/10/17 10:37:50;;;;;;;0.75;0.30;;;14.00;65.60;;;;;;5003606;28;20034;-64
2023/10/17 10:40:26;;;;;;;1.17;0.30;;;14.00;66.60;;;;;;5003322;28;20038;-65
2023/10/17 10:42:54;;;;;;;1.40;0.47;;;14.10;64.60;;;;;;5003473;28;20030;-65
2023/10/17 10:45:31;;;;;;;2.40;0.32;;;14.00;63.10;;;;;;5006279;28;20044;-66
2023/10/17 10:47:58;;;;;;;1.48;0.47;;;14.00;63.60;;;;;;4999289;28;20129;-65
2023/10/17 10:50:29;;;;;;;1.65;0.50;;;14.00;63.20;;;;;;5011704;28;20204;-65
2023/10/17 10:52:56;;;;;;;1.75;0.30;;;14.00;65.30;;;;;;4998208;28;20026;-66
2023/10/17 10:55:24;;;;;;;1.23;0.40;;;14.20;65.20;;;;;;4992606;28;20057;-65
2023/10/17 10:57:50;;;;;;;1.60;0.50;;;14.40;65.30;;;;;;5007490;28;20021;-65
2023/10/17 11:00:17;;;;;;;1.42;0.50;;;14.20;63.40;;;;;;5006629;28;20045;-65
2023/10/17 11:02:43;;;;;;;1.27;0.38;;;14.10;62.20;;;;;;5003125;28;20099;-67
2023/10/17 11:05:12;;;;;;;1.17;0.30;;;14.00;63.00;;;;;;5006181;28;20543;-65
2023/10/17 11:07:38;;;;;;;2.33;0.50;;;13.70;62.00;;;;;;5003382;28;20075;-65
2023/10/17 11:10:06;;;;;;;1.33;0.30;;;13.10;63.20;;;;;;4998527;28;20034;-65
2023/10/17 11:12:32;;;;;;;1.77;0.35;;;13.10;65.80;;;;;;5023414;28;20025;-66
2023/10/17 11:15:10;;;;;;;2.20;0.50;;;12.70;66.20;;;;;;5000557;28;20038;-65
2023/10/17 11:17:38;;;;;;;1.83;0.30;;;12.60;67.40;;;;;;4999327;28;20022;-66
2023/10/17 11:20:18;;;;;;;1.63;0.40;;;13.10;64.30;;;;;;5007808;28;20030;-66
2023/10/17 11:22:46;;;;;;;4.03;0.38;;;13.20;66.00;;;;;;5013586;28;20042;-66
2023/10/17 11:25:13;;;;;;;1.20;0.28;;;13.50;62.40;;;;;;5008439;28;20054;-65
2023/10/17 11:27:49;;;;;;;1.73;0.38;;;14.00;64.10;;;;;;5000510;28;20352;-66
2023/10/17 11:30:19;;;;;;;1.25;0.30;;;13.60;59.70;;;;;;5003398;28;20039;-65
2023/10/17 11:32:45;;;;;;;1.95;0.32;;;14.10;63.50;;;;;;5003218;28;20080;-67
2023/10/17 11:35:19;;;;;;;2.25;0.70;;;14.50;61.90;;;;;;5006928;28;20046;-66
2023/10/17 11:37:48;;;;;;;2.08;0.25;;;14.70;62.60;;;;;;5002800;28;20030;-65
2023/10/17 11:40:47;;;;;;;2.20;0.50;;;14.00;57.70;;;;;;5004224;28;20133;-65
2023/10/17 11:43:16;;;;;;;2.00;0.32;;;14.60;59.10;;;;;;4997036;28;20056;-65
2023/10/17 11:45:42;;;;;;;2.80;0.32;;;14.10;59.00;;;;;;5002999;28;20036;-66
2023/10/17 11:48:36;;;;;;;2.15;0.30;;;14.80;59.30;;;;;;5007125;28;20037;-66
2023/10/17 11:51:18;;;;;;;0.57;0.30;;;14.70;58.30;;;;;;5009030;28;20034;-66
2023/10/17 11:54:03;;;;;;;1.48;0.43;;;15.10;58.80;;;;;;5006861;28;20044;-66
2023/10/17 11:56:30;;;;;;;2.92;0.45;;;15.40;57.80;;;;;;5008080;28;20034;-66
2023/10/17 11:58:56;;;;;;;2.05;0.40;;;15.50;58.40;;;;;;5010882;28;20026;-68
2023/10/17 12:01:22;;;;;;;1.48;0.55;;;14.90;54.50;;;;;;5007767;28;20034;-65
2023/10/17 12:03:51;;;;;;;2.47;0.38;;;14.60;54.70;;;;;;5010871;28;20036;-66
2023/10/17 12:06:16;;;;;;;1.55;0.40;;;15.10;54.50;;;;;;5009135;28;20113;-65
2023/10/17 12:08:43;;;;;;;2.00;0.43;;;15.50;57.40;;;;;;5008614;28;20034;-65
2023/10/17 12:11:09;;;;;;;2.92;0.40;;;15.80;57.20;;;;;;5009479;28;20126;-66
2023/10/17 12:13:35;;;;;;;1.98;0.38;;;15.90;56.60;;;;;;5008235;28;20026;-65
2023/10/17 12:16:08;;;;;;;0.40;0.22;;;16.10;55.00;;;;;;5004597;28;20030;-66
2023/10/17 12:18:34;;;;;;;1.23;0.30;;;16.30;56.70;;;;;;5014699;28;20018;-65
2023/10/17 12:21:01;;;;;;;0.90;0.30;;;16.60;53.90;;;;;;5013097;28;20026;-66
2023/10/17 12:23:30;;;;;;;1.95;0.43;;;16.50;51.00;;;;;;5007039;28;20029;-66
2023/10/17 12:25:57;;;;;;;1.52;0.22;;;16.40;51.80;;;;;;5006695;28;20061;-66
2023/10/17 12:28:23;;;;;;;3.35;0.50;;;16.30;52.70;;;;;;5008394;28;20065;-66
2023/10/17 12:30:48;;;;;;;1.08;0.40;;;16.70;49.70;;;;;;5001271;28;20058;-67
2023/10/17 12:33:14;;;;;;;0.80;0.22;;;16.60;50.80;;;;;;5002767;28;20479;-65
2023/10/17 12:35:46;;;;;;;2.70;0.30;;;16.60;52.80;;;;;;5005164;28;20022;-66
2023/10/17 12:38:14;;;;;;;2.78;0.47;;;16.90;49.50;;;;;;5000257;28;20026;-65
2023/10/17 12:40:42;;;;;;;0.85;0.30;;;17.00;50.70;;;;;;4997133;28;20030;-66
2023/10/17 12:43:11;;;;;;;2.90;0.40;;;17.00;51.80;;;;;;5016773;28;20026;-66
2023/10/17 12:45:38;;;;;;;2.58;0.38;;;17.10;52.10;;;;;;4996877;28;20030;-65
2023/10/17 12:48:05;;;;;;;1.33;0.38;;;16.90;50.10;;;;;;4997633;28;20030;-65
2023/10/17 12:50:33;;;;;;;1.05;0.40;;;17.30;54.00;;;;;;5004353;28;20022;-66
2023/10/17 12:52:58;;;;;;;0.88;0.30;;;17.40;51.90;;;;;;5003126;28;20034;-67
2023/10/17 12:55:24;;;;;;;1.17;0.40;;;17.70;49.40;;;;;;4996845;28;20494;-66
2023/10/17 12:57:51;;;;;;;1.75;0.43;;;17.70;47.30;;;;;;5000733;28;20022;-66
2023/10/17 13:00:17;;;;;;;0.75;0.22;;;17.90;49.60;;;;;;5004780;28;20398;-66
2023/10/17 13:02:43;;;;;;;1.42;0.35;;;18.00;49.00;;;;;;4996879;28;20463;-66
2023/10/17 13:05:10;;;;;;;1.60;0.40;;;18.10;49.80;;;;;;5006790;28;20046;-67
2023/10/17 13:07:40;;;;;;;2.50;0.28;;;18.30;49.60;;;;;;5000334;28;20025;-65
2023/10/17 13:10:07;;;;;;;1.95;0.40;;;18.10;47.90;;;;;;5007314;28;20426;-66
2023/10/17 13:12:33;;;;;;;1.13;0.40;;;18.40;49.10;;;;;;5005698;28;20042;-65
2023/10/17 13:14:59;;;;;;;1.45;0.38;;;18.90;48.40;;;;;;5000210;28;20026;-67
2023/10/17 13:17:25;;;;;;;1.25;0.50;;;18.10;47.60;;;;;;5004087;28;20440;-67
2023/10/17 13:19:52;;;;;;;2.15;0.35;;;18.30;48.60;;;;;;5003355;28;20037;-68
2023/10/17 13:22:20;;;;;;;1.45;0.35;;;18.70;49.30;;;;;;5006606;28;20038;-66
2023/10/17 13:24:45;;;;;;;0.60;0.20;;;19.00;50.00;;;;;;5007032;28;20088;-66
2023/10/17 13:27:11;;;;;;;2.47;0.60;;;18.80;45.00;;;;;;5011227;28;20390;-66
2023/10/17 13:29:37;;;;;;;3.92;0.35;;;19.00;48.20;;;;;;5006347;28;20113;-66
2023/10/17 13:32:07;;;;;;;1.00;0.70;;;19.50;47.10;;;;;;5001551;28;20041;-66
2023/10/17 13:34:34;;;;;;;2.88;0.35;;;19.00;47.30;;;;;;4966405;28;20062;-66
2023/10/17 13:37:00;;;;;;;2.20;0.30;;;19.00;48.10;;;;;;5000090;28;20042;-66
2023/10/17 13:39:25;;;;;;;1.50;0.30;;;18.50;45.70;;;;;;5007097;28;20030;-65
2023/10/17 13:41:51;;;;;;;0.55;0.30;;;18.70;48.20;;;;;;5000826;28;20030;-66
2023/10/17 13:44:17;;;;;;;2.67;0.50;;;18.90;47.60;;;;;;5007023;28;20137;-66
2023/10/17 13:46:42;;;;;;;1.92;0.35;;;19.30;45.90;;;;;;5008610;28;20184;-67
2023/10/17 13:49:11;;;;;;;1.88;0.40;;;19.20;47.90;;;;;;5007512;28;20088;-66
2023/10/17 13:51:38;;;;;;;1.08;0.30;;;19.20;47.10;;;;;;5006535;28;20038;-67
2023/10/17 13:54:05;;;;;;;2.00;0.40;;;19.00;47.80;;;;;;5004319;28;20131;-66
2023/10/17 13:56:33;;;;;;;2.58;0.40;;;19.20;48.90;;;;;;5005522;28;20135;-66
2023/10/17 13:58:58;;;;;;;1.40;0.47;;;19.10;46.30;;;;;;5006067;28;20038;-67
2023/10/17 14:01:41;;;;;;;1.15;0.30;;;19.50;48.70;;;;;;5008596;28;20079;-65
2023/10/17 14:04:09;;;;;;;1.50;0.30;;;19.40;46.40;;;;;;5009673;28;20501;-67
2023/10/17 14:06:38;;;;;;;0.90;0.28;;;19.40;46.90;;;;;;5002069;28;20026;-67
2023/10/17 14:09:04;;;;;;;1.77;0.30;;;19.00;47.10;;;;;;5006003;28;20042;-66
2023/10/17 14:11:29;;;;;;;2.60;0.40;;;19.50;46.90;;;;;;5002635;28;20037;-68
2023/10/17 14:13:55;;;;;;;2.80;0.45;;;19.40;49.40;;;;;;5005923;28;20049;-70
2023/10/17 14:16:22;;;;;;;1.73;0.50;;;19.20;44.40;;;;;;4999591;28;20113;-66
2023/10/17 14:18:52;;;;;;;2.13;0.40;;;19.70;49.00;;;;;;4996070;28;20031;-66
2023/10/17 14:23:57;;;;;;;2.40;0.50;;;18.50;45.90;;;;;;5002659;28;20400;-65
2023/10/17 14:26:29;;;;;;;1.38;0.40;;;19.20;47.70;;;;;;5004787;28;20057;-66
2023/10/17 14:28:56;;;;;;;2.90;0.50;;;18.50;49.10;;;;;;5000550;28;20140;-65
2023/10/17 14:31:23;;;;;;;2.20;0.40;;;18.80;49.40;;;;;;4999668;28;20033;-65
2023/10/17 14:33:52;;;;;;;2.67;0.40;;;18.60;47.20;;;;;;4984464;28;20072;-66
2023/10/17 14:36:18;;;;;;;0.50;0.30;;;18.70;47.20;;;;;;5011124;28;20038;-66
2023/10/17 14:38:44;;;;;;;2.13;0.40;;;19.10;50.40;;;;;;5002374;28;20022;-66
2023/10/17 14:41:11;;;;;;;2.28;0.50;;;19.20;48.20;;;;;;5007394;28;20520;-66
2023/10/17 14:43:49;;;;;;;1.02;0.28;;;18.20;48.10;;;;;;5006276;28;20014;-65
2023/10/17 14:46:16;;;;;;;2.17;0.50;;;18.60;49.80;;;;;;4998426;28;20375;-66
2023/10/17 14:48:42;;;;;;;1.67;0.38;;;18.50;46.40;;;;;;4998672;28;20022;-65
2023/10/17 14:51:08;;;;;;;2.15;0.40;;;18.30;47.60;;;;;;5009604;28;20021;-65
2023/10/17 14:53:33;;;;;;;1.42;0.50;;;18.50;47.30;;;;;;5000538;28;20018;-65